Time;durP1;ratioP1;P1;durP2;ratioP2;P2;SDS_P1;SDS_P2;PMS_P1;PMS_P2;Temp;Humidity;BMP_temperature;BMP_pressure;BME280_temperature;BME280_humidity;BME280_pressure;Samples;Min_cycle;Max_cycle;Signal;HPM_P1;HPM_P2
2023/05/23 00:01:24;;;;;;;;;;;;;;;15.27;43.53;102428.97;7352375;19;19933;-57
2023/05/23 00:03:52;;;;;;;;;;;;;;;15.23;43.76;102432.53;7353013;19;20382;-57
2023/05/23 00:06:20;;;;;;;;;;;;;;;15.19;43.66;102433.47;7347877;19;19940;-58
2023/05/23 00:08:45;;;;;;;;;;;;;;;15.15;43.56;102434.41;7351380;19;20055;-57
2023/05/23 00:11:12;;;;;;;;;;;;;;;15.12;43.63;102442.34;7347847;19;19918;-57
2023/05/23 00:13:38;;;;;;;;;;;;;;;15.09;43.75;102439.75;7353766;19;19962;-57
2023/05/23 00:16:04;;;;;;;;;;;;;;;15.05;43.67;102440.69;7348230;19;21445;-57
2023/05/23 00:18:29;;;;;;;;;;;;;;;15.01;43.66;102437.25;7351433;19;19942;-57
2023/05/23 00:20:56;;;;;;;;;;;;;;;14.98;43.84;102437.25;7347525;19;19937;-57
2023/05/23 00:23:24;;;;;;;;;;;;;;;14.96;44.21;102435.56;7346818;19;19914;-57
2023/05/23 00:25:52;;;;;;;;;;;;;;;14.92;43.84;102431.22;7351332;19;19919;-57
2023/05/23 00:28:18;;;;;;;;;;;;;;;14.90;44.17;102431.25;7352333;19;19919;-57
2023/05/23 00:30:43;;;;;;;;;;;;;;;14.87;44.07;102433.91;7349597;19;19910;-57
2023/05/23 00:33:09;;;;;;;;;;;;;;;14.84;44.12;102433.94;7352796;19;19925;-57
2023/05/23 00:35:34;;;;;;;;;;;;;;;14.83;43.93;102436.59;7345328;19;19947;-57
2023/05/23 00:38:01;;;;;;;;;;;;;;;14.79;44.29;102430.50;7348119;19;19911;-57
2023/05/23 00:40:26;;;;;;;;;;;;;;;14.77;44.32;102427.91;7345227;19;19994;-58
2023/05/23 00:42:51;;;;;;;;;;;;;;;14.37;44.04;102364.38;7351324;19;20653;-57
2023/05/23 00:45:17;;;;;;;;;;;;;;;14.71;44.46;102433.25;7349775;19;19919;-58
2023/05/23 00:47:43;;;;;;;;;;;;;;;14.68;44.37;102417.50;7347272;19;19922;-57
2023/05/23 00:50:10;;;;;;;;;;;;;;;14.64;44.15;102426.28;7349709;19;19936;-57
2023/05/23 00:52:36;;;;;;;;;;;;;;;14.63;44.50;102426.31;7348387;19;19919;-57
2023/05/23 00:55:01;;;;;;;;;;;;;;;14.60;44.51;102422.00;7348873;19;19939;-57
2023/05/23 00:57:27;;;;;;;;;;;;;;;14.58;44.53;102421.13;7350016;19;19942;-57
2023/05/23 00:59:52;;;;;;;;;;;;;;;14.56;44.48;102433.41;7342904;19;19922;-57
2023/05/23 01:02:17;;;;;;;;;;;;;;;14.53;44.44;102426.44;7351492;19;19925;-57
2023/05/23 01:04:43;;;;;;;;;;;;;;;14.50;44.53;102429.09;7348818;19;19915;-57
2023/05/23 01:07:09;;;;;;;;;;;;;;;14.49;44.35;102427.34;7346217;19;19926;-57
2023/05/23 01:09:34;;;;;;;;;;;;;;;14.46;44.79;102431.75;7350411;19;19914;-57
2023/05/23 01:12:05;;;;;;;;;;;;;;;14.44;44.46;102428.25;7348091;19;20269;-57
2023/05/23 01:14:41;;;;;;;;;;;;;;;14.42;44.99;102424.78;7350069;19;19923;-57
2023/05/23 01:17:10;;;;;;;;;;;;;;;14.39;44.51;102424.81;7347165;19;21376;-57
2023/05/23 01:19:35;;;;;;;;;;;;;;;14.36;44.91;102424.84;7348507;19;19923;-57
2023/05/23 01:22:05;;;;;;;;;;;;;;;14.33;44.31;102424.88;7347991;19;20472;-57
2023/05/23 01:24:43;;;;;;;;;;;;;;;14.31;44.77;102421.41;7350241;19;19911;-58
2023/05/23 01:27:08;;;;;;;;;;;;;;;14.26;44.95;102424.94;7345205;19;19918;-57
2023/05/23 01:29:37;;;;;;;;;;;;;;;14.23;44.85;102430.22;7350117;19;20256;-57
2023/05/23 01:32:05;;;;;;;;;;;;;;;14.20;44.73;102427.66;7349345;19;19922;-58
2023/05/23 01:34:31;;;;;;;;;;;;;;;14.17;45.05;102427.66;7350363;19;20549;-57
2023/05/23 01:36:56;;;;;;;;;;;;;;;14.13;44.44;102428.56;7348988;19;21764;-57
2023/05/23 01:39:22;;;;;;;;;;;;;;;14.11;45.12;102430.34;7357076;19;19978;-57
2023/05/23 01:41:48;;;;;;;;;;;;;;;14.08;45.18;102433.00;7353449;19;19919;-58
2023/05/23 01:44:14;;;;;;;;;;;;;;;14.05;45.05;102430.44;7355272;19;19915;-57
2023/05/23 01:46:40;;;;;;;;;;;;;;;14.02;44.44;102435.69;7356583;19;20806;-58
2023/05/23 01:49:07;;;;;;;;;;;;;;;13.99;44.98;102435.75;7343633;19;19922;-57
2023/05/23 01:51:33;;;;;;;;;;;;;;;13.96;44.89;102435.75;7355173;19;20473;-57
2023/05/23 01:53:58;;;;;;;;;;;;;;;13.92;45.20;102434.03;7353575;19;19926;-57
2023/05/23 01:56:23;;;;;;;;;;;;;;;13.90;45.16;102430.56;7351403;19;19935;-58
2023/05/23 01:58:49;;;;;;;;;;;;;;;13.87;44.90;102436.69;7338616;19;20454;-57
2023/05/23 02:01:15;;;;;;;;;;;;;;;13.87;44.32;102441.09;7358685;19;20215;-58
2023/05/23 02:03:40;;;;;;;;;;;;;;;13.84;45.12;102442.00;7349882;19;20382;-57
2023/05/23 02:06:06;;;;;;;;;;;;;;;13.82;44.91;102437.63;7354495;19;19959;-57
2023/05/23 02:08:31;;;;;;;;;;;;;;;13.80;45.11;102436.78;7356419;19;19919;-57
2023/05/23 02:10:56;;;;;;;;;;;;;;;13.37;44.98;102363.59;7340681;19;19934;-57
2023/05/23 02:13:21;;;;;;;;;;;;;;;13.75;45.22;102442.94;7351561;19;19935;-57
2023/05/23 02:15:47;;;;;;;;;;;;;;;13.73;45.18;102439.44;7353771;19;19932;-57
2023/05/23 02:18:12;;;;;;;;;;;;;;;13.70;45.03;102434.22;7354551;19;20090;-57
2023/05/23 02:20:37;;;;;;;;;;;;;;;13.69;45.18;102435.13;7357137;19;19922;-57
2023/05/23 02:23:02;;;;;;;;;;;;;;;13.68;45.38;102440.34;7350348;19;19918;-57
2023/05/23 02:25:28;;;;;;;;;;;;;;;13.65;45.79;102437.78;7357845;19;20950;-57
2023/05/23 02:27:53;;;;;;;;;;;;;;;13.65;45.74;102429.91;7352211;19;20031;-58
2023/05/23 02:30:18;;;;;;;;;;;;;;;13.64;45.85;102430.78;7353989;19;19939;-57
2023/05/23 02:32:43;;;;;;;;;;;;;;;13.63;45.63;102423.75;7356579;19;19922;-57
2023/05/23 02:35:09;;;;;;;;;;;;;;;13.62;45.48;102425.53;7354859;19;19998;-57
2023/05/23 02:37:35;;;;;;;;;;;;;;;13.61;46.04;102429.03;7353286;19;19918;-57
2023/05/23 02:40:00;;;;;;;;;;;;;;;13.61;45.79;102434.28;7356419;19;20540;-57
2023/05/23 02:42:25;;;;;;;;;;;;;;;13.61;45.97;102434.28;7349209;19;19924;-57
2023/05/23 02:44:50;;;;;;;;;;;;;;;13.60;46.25;102436.94;7352875;19;19915;-57
2023/05/23 02:47:16;;;;;;;;;;;;;;;13.60;46.16;102436.94;7355547;19;19926;-58
2023/05/23 02:49:41;;;;;;;;;;;;;;;13.60;46.04;102434.31;7350570;19;19999;-57
2023/05/23 02:52:06;;;;;;;;;;;;;;;13.60;46.03;102431.69;7352327;19;19914;-57
2023/05/23 02:54:31;;;;;;;;;;;;;;;13.59;46.25;102429.94;7353953;19;19926;-57
2023/05/23 02:56:57;;;;;;;;;;;;;;;13.59;45.93;102435.19;7354522;19;20694;-57
2023/05/23 02:59:22;;;;;;;;;;;;;;;13.58;45.96;102434.31;7355114;19;19923;-57
2023/05/23 03:01:48;;;;;;;;;;;;;;;13.57;45.81;102440.44;7358436;19;20542;-57
2023/05/23 03:04:13;;;;;;;;;;;;;;;13.56;46.12;102441.31;7327530;19;19993;-58
2023/05/23 03:06:38;;;;;;;;;;;;;;;13.54;46.15;102443.09;7357009;19;19914;-57
2023/05/23 03:09:04;;;;;;;;;;;;;;;13.54;45.95;102440.47;7354974;19;20425;-57
2023/05/23 03:11:29;;;;;;;;;;;;;;;13.53;46.36;102440.47;7357736;19;19923;-57
2023/05/23 03:13:55;;;;;;;;;;;;;;;13.11;46.22;102367.25;7347305;19;19929;-57
2023/05/23 03:16:21;;;;;;;;;;;;;;;13.50;46.41;102447.50;7356446;19;19934;-57
2023/05/23 03:18:46;;;;;;;;;;;;;;;13.50;46.32;102441.38;7350620;19;19926;-57
2023/05/23 03:21:11;;;;;;;;;;;;;;;13.49;46.41;102448.38;7334525;19;19942;-57
2023/05/23 03:23:36;;;;;;;;;;;;;;;13.49;46.08;102443.13;7351594;19;19994;-57
2023/05/23 03:26:02;;;;;;;;;;;;;;;13.48;46.43;102443.13;7353608;19;19939;-57
2023/05/23 03:28:29;;;;;;;;;;;;;;;13.48;46.57;102440.50;7353615;19;20805;-56
2023/05/23 03:30:55;;;;;;;;;;;;;;;13.46;46.56;102439.66;7353228;19;20025;-58
2023/05/23 03:33:20;;;;;;;;;;;;;;;13.46;46.06;102439.66;7353377;19;20485;-57
2023/05/23 03:35:45;;;;;;;;;;;;;;;13.44;46.26;102437.03;7349279;19;20182;-58
2023/05/23 03:38:10;;;;;;;;;;;;;;;13.43;45.85;102437.03;7351036;19;19950;-56
2023/05/23 03:40:36;;;;;;;;;;;;;;;13.41;46.35;102437.06;7355309;19;19930;-57
2023/05/23 03:43:03;;;;;;;;;;;;;;;13.40;46.41;102429.19;7353605;19;20017;-57
2023/05/23 03:45:29;;;;;;;;;;;;;;;13.39;46.34;102433.59;7354855;19;19943;-57
2023/05/23 03:47:54;;;;;;;;;;;;;;;13.36;46.33;102428.34;7348690;19;19922;-58
2023/05/23 03:50:20;;;;;;;;;;;;;;;13.35;46.21;102425.75;7349974;19;19914;-57
2023/05/23 03:52:45;;;;;;;;;;;;;;;13.34;46.33;102429.25;7354531;19;19958;-57
2023/05/23 03:55:11;;;;;;;;;;;;;;;13.33;46.39;102430.09;7350291;19;19954;-57
2023/05/23 03:57:36;;;;;;;;;;;;;;;13.32;46.46;102426.63;7353787;19;19917;-57
2023/05/23 04:00:04;;;;;;;;;;;;;;;13.32;46.67;102425.75;7348399;19;19910;-57
2023/05/23 04:02:30;;;;;;;;;;;;;;;13.30;46.56;102422.28;7352697;19;19927;-57
2023/05/23 04:04:55;;;;;;;;;;;;;;;13.29;46.55;102431.03;7346702;19;20240;-57
2023/05/23 04:07:25;;;;;;;;;;;;;;;13.27;46.40;102432.78;7353256;19;19946;-57
2023/05/23 04:09:50;;;;;;;;;;;;;;;13.26;45.94;102431.03;7353600;19;19922;-57
2023/05/23 04:12:16;;;;;;;;;;;;;;;13.25;46.65;102424.91;7352824;19;19931;-58
2023/05/23 04:14:41;;;;;;;;;;;;;;;12.85;46.00;102354.31;7350486;19;20284;-57
2023/05/23 04:17:07;;;;;;;;;;;;;;;13.22;46.34;102410.06;7352645;19;19974;-57
2023/05/23 04:19:33;;;;;;;;;;;;;;;13.21;46.56;102418.81;7348579;19;19911;-57
2023/05/23 04:21:59;;;;;;;;;;;;;;;13.19;47.03;102420.56;7351479;19;20534;-57
2023/05/23 04:24:24;;;;;;;;;;;;;;;13.18;47.08;102418.81;7353455;19;19931;-58
2023/05/23 04:26:50;;;;;;;;;;;;;;;13.18;46.62;102418.81;7352507;19;19918;-57
2023/05/23 04:29:15;;;;;;;;;;;;;;;13.17;47.20;102422.28;7348833;19;19926;-57
2023/05/23 04:31:41;;;;;;;;;;;;;;;13.18;46.87;102417.94;7352569;19;19929;-57
2023/05/23 04:34:06;;;;;;;;;;;;;;;13.17;47.40;102418.81;7349720;19;20338;-57
2023/05/23 04:36:32;;;;;;;;;;;;;;;12.91;47.20;102371.75;7349572;19;19926;-57
2023/05/23 04:38:57;;;;;;;;;;;;;;;13.16;47.57;102415.31;7352847;19;19951;-57
2023/05/23 04:41:22;;;;;;;;;;;;;;;13.17;47.13;102417.06;7349159;19;19960;-58
2023/05/23 04:43:53;;;;;;;;;;;;;;;13.16;47.16;102420.56;7352595;19;19919;-58
2023/05/23 04:46:21;;;;;;;;;;;;;;;13.16;47.04;102423.19;7341868;19;19933;-57
2023/05/23 04:48:47;;;;;;;;;;;;;;;13.17;47.37;102427.53;7345198;19;20378;-57
2023/05/23 04:51:12;;;;;;;;;;;;;;;13.16;47.47;102425.81;7350066;19;19943;-57
2023/05/23 04:53:39;;;;;;;;;;;;;;;13.17;47.72;102427.53;7349591;19;20282;-57
2023/05/23 04:56:07;;;;;;;;;;;;;;;13.17;47.25;102432.78;7340811;19;19919;-57
2023/05/23 04:58:32;;;;;;;;;;;;;;;13.18;47.27;102434.56;7353418;19;19922;-57
2023/05/23 05:00:58;;;;;;;;;;;;;;;13.18;47.63;102434.56;7345148;19;19915;-57
2023/05/23 05:03:23;;;;;;;;;;;;;;;13.20;47.80;102447.66;7352129;19;20040;-57
2023/05/23 05:05:49;;;;;;;;;;;;;;;13.20;47.21;102442.41;7347637;19;19953;-57
2023/05/23 05:08:14;;;;;;;;;;;;;;;13.19;47.66;102438.91;7350565;19;19922;-57
2023/05/23 05:10:40;;;;;;;;;;;;;;;13.20;47.48;102438.03;7357191;19;19918;-57
2023/05/23 05:13:05;;;;;;;;;;;;;;;13.19;47.13;102436.28;7348114;19;20836;-58
2023/05/23 05:15:31;;;;;;;;;;;;;;;13.21;47.04;102429.31;7357997;19;19929;-57
2023/05/23 05:17:56;;;;;;;;;;;;;;;13.21;47.08;102424.06;7355135;19;19926;-58
2023/05/23 05:20:22;;;;;;;;;;;;;;;13.22;47.27;102424.94;7359559;19;20035;-58
2023/05/23 05:22:54;;;;;;;;;;;;;;;13.22;47.17;102427.56;7352901;19;20464;-57
2023/05/23 05:25:19;;;;;;;;;;;;;;;13.21;47.82;102426.69;7356330;19;20730;-57
2023/05/23 05:27:45;;;;;;;;;;;;;;;13.22;47.88;102431.03;7353507;19;19997;-57
2023/05/23 05:30:10;;;;;;;;;;;;;;;13.23;47.66;102432.81;7357722;19;20433;-57
2023/05/23 05:32:36;;;;;;;;;;;;;;;13.24;47.77;102425.81;7352065;19;19926;-57
2023/05/23 05:35:02;;;;;;;;;;;;;;;13.24;47.76;102424.06;7356437;19;19934;-56
2023/05/23 05:37:27;;;;;;;;;;;;;;;13.26;47.86;102423.16;7353164;19;20310;-57
2023/05/23 05:39:53;;;;;;;;;;;;;;;13.28;47.97;102419.66;7355984;19;19934;-56
2023/05/23 05:42:18;;;;;;;;;;;;;;;13.31;48.08;102421.38;7353271;19;19934;-57
2023/05/23 05:44:44;;;;;;;;;;;;;;;13.33;48.33;102422.22;7358580;19;20026;-57
2023/05/23 05:47:09;;;;;;;;;;;;;;;13.35;48.31;102425.75;7357572;19;19919;-57
2023/05/23 05:49:34;;;;;;;;;;;;;;;13.37;48.45;102423.97;7355483;19;19987;-57
2023/05/23 05:52:00;;;;;;;;;;;;;;;13.40;48.27;102429.19;7353985;19;19911;-57
2023/05/23 05:54:25;;;;;;;;;;;;;;;13.45;48.15;102427.41;7356764;19;19926;-57
2023/05/23 05:56:51;;;;;;;;;;;;;;;13.48;48.22;102422.13;7346436;19;19919;-57
2023/05/23 05:59:16;;;;;;;;;;;;;;;13.50;47.88;102421.25;7345097;19;19934;-57
2023/05/23 06:01:41;;;;;;;;;;;;;;;13.54;47.64;102422.09;7352481;19;21366;-57
2023/05/23 06:04:06;;;;;;;;;;;;;;;13.57;48.16;102419.44;7355748;19;20385;-57
2023/05/23 06:06:32;;;;;;;;;;;;;;;13.59;47.96;102415.06;7348335;19;19929;-57
2023/05/23 06:08:58;;;;;;;;;;;;;;;13.62;47.71;102422.91;7358927;19;19926;-57
2023/05/23 06:11:23;;;;;;;;;;;;;;;13.64;48.51;102423.78;7342018;19;20383;-57
2023/05/23 06:13:48;;;;;;;;;;;;;;;13.68;48.14;102420.22;7356442;19;19929;-57
2023/05/23 06:16:14;;;;;;;;;;;;;;;13.70;48.38;102413.22;7355476;19;19975;-57
2023/05/23 06:18:39;;;;;;;;;;;;;;;13.75;48.25;102421.94;7358396;19;19911;-57
2023/05/23 06:21:05;;;;;;;;;;;;;;;13.80;47.79;102426.28;7352195;19;19930;-57
2023/05/23 06:23:30;;;;;;;;;;;;;;;13.82;47.93;102435.00;7355927;19;20736;-57
2023/05/23 06:25:56;;;;;;;;;;;;;;;13.85;47.89;102437.63;7352354;19;20392;-58
2023/05/23 06:28:21;;;;;;;;;;;;;;;13.87;48.21;102435.84;7355148;19;20274;-57
2023/05/23 06:30:46;;;;;;;;;;;;;;;13.89;48.30;102434.06;7356023;19;19948;-57
2023/05/23 06:33:12;;;;;;;;;;;;;;;13.92;48.57;102439.28;7353516;19;19911;-58
2023/05/23 06:35:37;;;;;;;;;;;;;;;13.96;48.28;102438.38;7353017;19;20809;-57
2023/05/23 06:38:02;;;;;;;;;;;;;;;13.99;48.74;102435.75;7354696;19;19958;-57
2023/05/23 06:40:27;;;;;;;;;;;;;;;14.03;48.52;102447.94;7350978;19;20369;-58
2023/05/23 06:42:53;;;;;;;;;;;;;;;14.08;48.60;102446.13;7346184;19;19967;-53
2023/05/23 06:45:18;;;;;;;;;;;;;;;14.13;48.51;102443.47;7350569;19;19931;-57
2023/05/23 06:47:44;;;;;;;;;;;;;;;14.18;48.56;102437.28;7356337;19;20001;-57
2023/05/23 06:50:09;;;;;;;;;;;;;;;14.24;48.51;102441.59;7349162;19;19922;-57
2023/05/23 06:52:35;;;;;;;;;;;;;;;14.30;48.66;102443.31;7333081;19;19929;-57
2023/05/23 06:55:00;;;;;;;;;;;;;;;14.34;48.79;102439.75;7334856;19;19927;-57
2023/05/23 06:57:25;;;;;;;;;;;;;;;14.39;48.82;102440.56;7353390;19;19959;-57
2023/05/23 06:59:50;;;;;;;;;;;;;;;14.44;48.65;102433.50;7357620;19;19925;-57
2023/05/23 07:02:16;;;;;;;;;;;;;;;14.48;48.74;102445.78;7358045;19;19914;-57
2023/05/23 07:04:41;;;;;;;;;;;;;;;14.53;48.57;102433.44;7353436;19;19923;-57
2023/05/23 07:07:06;;;;;;;;;;;;;;;14.58;48.85;102434.25;7324235;19;20014;-57
2023/05/23 07:09:31;;;;;;;;;;;;;;;14.62;49.00;102443.88;7337467;19;19939;-53
2023/05/23 07:11:57;;;;;;;;;;;;;;;14.67;48.96;102441.19;7339504;19;20803;-58
2023/05/23 07:14:22;;;;;;;;;;;;;;;14.72;49.13;102440.22;7334870;19;20657;-57
2023/05/23 07:16:47;;;;;;;;;;;;;;;14.77;48.75;102448.94;7341515;19;19925;-57
2023/05/23 07:19:12;;;;;;;;;;;;;;;14.84;48.92;102438.34;7336413;19;19954;-57
2023/05/23 07:21:38;;;;;;;;;;;;;;;14.90;48.73;102438.25;7337700;19;20606;-57
2023/05/23 07:24:03;;;;;;;;;;;;;;;14.95;49.10;102437.31;7343116;19;19919;-57
2023/05/23 07:26:28;;;;;;;;;;;;;;;15.01;49.27;102431.13;7336743;19;19930;-57
2023/05/23 07:28:53;;;;;;;;;;;;;;;15.09;48.82;102434.50;7342275;19;19994;-58
2023/05/23 07:31:19;;;;;;;;;;;;;;;15.15;48.82;102438.78;7338536;19;19930;-54
2023/05/23 07:33:44;;;;;;;;;;;;;;;15.20;48.93;102432.56;7337208;19;19950;-58
2023/05/23 07:36:10;;;;;;;;;;;;;;;15.27;48.73;102439.50;7335642;19;19934;-57
2023/05/23 07:38:35;;;;;;;;;;;;;;;15.35;49.06;102427.97;7342119;19;19919;-57
2023/05/23 07:41:00;;;;;;;;;;;;;;;15.41;49.07;102425.25;7338930;19;19930;-57
2023/05/23 07:43:25;;;;;;;;;;;;;;;15.47;48.54;102435.72;7338853;19;19941;-57
2023/05/23 07:45:51;;;;;;;;;;;;;;;15.53;48.51;102443.50;7341139;19;20018;-58
2023/05/23 07:48:16;;;;;;;;;;;;;;;15.60;48.21;102444.28;7332718;19;19952;-57
2023/05/23 07:50:41;;;;;;;;;;;;;;;15.65;48.37;102445.97;7341416;19;19922;-57
2023/05/23 07:53:06;;;;;;;;;;;;;;;15.70;48.35;102444.13;7337640;19;19982;-58
2023/05/23 07:55:32;;;;;;;;;;;;;;;15.76;48.84;102449.31;7340086;19;19926;-57
2023/05/23 07:57:57;;;;;;;;;;;;;;;15.82;48.45;102449.22;7329190;19;19952;-57
2023/05/23 08:00:22;;;;;;;;;;;;;;;15.90;48.25;102450.84;7330462;19;19927;-57
2023/05/23 08:02:48;;;;;;;;;;;;;;;15.97;48.35;102449.88;7334405;19;19945;-58
2023/05/23 08:05:14;;;;;;;;;;;;;;;16.04;48.91;102448.84;7334308;19;20421;-57
2023/05/23 08:07:39;;;;;;;;;;;;;;;16.12;48.53;102446.97;7339258;19;19929;-58
2023/05/23 08:10:05;;;;;;;;;;;;;;;16.19;48.77;102445.94;7340017;19;20036;-57
2023/05/23 08:12:31;;;;;;;;;;;;;;;16.25;48.56;102451.09;7339951;19;19941;-58
2023/05/23 08:14:56;;;;;;;;;;;;;;;16.30;48.32;102446.59;7332580;19;19918;-58
2023/05/23 08:17:22;;;;;;;;;;;;;;;16.39;48.43;102442.06;7341576;19;19918;-58
2023/05/23 08:19:47;;;;;;;;;;;;;;;16.48;48.86;102449.81;7338666;19;19923;-58
2023/05/23 08:22:12;;;;;;;;;;;;;;;16.54;48.35;102449.69;7340191;19;19923;-59
2023/05/23 08:24:38;;;;;;;;;;;;;;;16.60;48.82;102439.00;7335802;19;20794;-58
2023/05/23 08:27:03;;;;;;;;;;;;;;;16.68;48.32;102450.28;7339431;19;19929;-57
2023/05/23 08:29:28;;;;;;;;;;;;;;;16.73;48.69;102445.81;7328119;19;20020;-57
2023/05/23 08:31:54;;;;;;;;;;;;;;;16.79;48.68;102440.41;7335755;19;19918;-57
2023/05/23 08:34:19;;;;;;;;;;;;;;;16.85;48.45;102440.25;7330347;19;19957;-56
2023/05/23 08:36:44;;;;;;;;;;;;;;;16.92;48.45;102434.84;7333073;19;19919;-58
2023/05/23 08:39:10;;;;;;;;;;;;;;;16.98;48.31;102437.34;7332515;19;20765;-58
2023/05/23 08:41:35;;;;;;;;;;;;;;;17.05;48.09;102452.16;7334266;19;19921;-58
2023/05/23 08:44:01;;;;;;;;;;;;;;;17.10;48.18;102447.66;7339207;19;19922;-58
2023/05/23 08:46:26;;;;;;;;;;;;;;;17.15;48.14;102453.69;7342847;19;19986;-58
2023/05/23 08:48:53;;;;;;;;;;;;;;;17.20;47.75;102453.59;7340287;19;19928;-58
2023/05/23 08:51:20;;;;;;;;;;;;;;;17.24;47.73;102458.78;7339570;19;20322;-58
2023/05/23 08:53:47;;;;;;;;;;;;;;;17.28;47.69;102449.88;7338272;19;20042;-56
2023/05/23 08:56:12;;;;;;;;;;;;;;;17.32;47.73;102445.41;7339573;19;20468;-58
2023/05/23 08:58:40;;;;;;;;;;;;;;;17.36;47.61;102441.78;7342755;19;19923;-57
2023/05/23 09:01:07;;;;;;;;;;;;;;;17.41;47.66;102439.91;7340194;19;19923;-57
2023/05/23 09:03:32;;;;;;;;;;;;;;;17.45;48.02;102430.16;7337124;19;19923;-57
2023/05/23 09:05:57;;;;;;;;;;;;;;;17.50;47.74;102433.53;7341878;19;19927;-58
2023/05/23 09:08:23;;;;;;;;;;;;;;;17.55;47.59;102436.94;7343012;19;20627;-58
2023/05/23 09:10:49;;;;;;;;;;;;;;;17.60;47.82;102429.78;7342099;19;19911;-57
2023/05/23 09:13:16;;;;;;;;;;;;;;;17.66;47.76;102424.34;7339239;19;19922;-57
2023/05/23 09:16:00;;;;;;;;;;;;;;;17.71;48.06;102422.44;7341895;19;19923;-58
2023/05/23 09:18:25;;;;;;;;;;;;;;;17.83;47.91;102416.88;7340827;19;20505;-58
2023/05/23 09:20:51;;;;;;;;;;;;;;;17.99;48.34;102427.03;7342617;19;19927;-58
2023/05/23 09:23:16;;;;;;;;;;;;;;;18.17;48.00;102425.72;7341483;19;21744;-57
2023/05/23 09:25:45;;;;;;;;;;;;;;;18.38;48.18;102425.97;7340467;19;19927;-58
2023/05/23 09:28:10;;;;;;;;;;;;;;;18.60;48.29;102431.56;7343057;19;20604;-58
2023/05/23 09:30:37;;;;;;;;;;;;;;;18.83;48.21;102422.09;7342217;19;20039;-58
2023/05/23 09:33:03;;;;;;;;;;;;;;;19.10;48.09;102420.38;7342093;19;20723;-59
2023/05/23 09:35:28;;;;;;;;;;;;;;;19.35;48.06;102424.00;7341552;19;19919;-58
2023/05/23 09:37:55;;;;;;;;;;;;;;;19.64;48.35;102415.13;7342544;19;19918;-58
2023/05/23 09:40:20;;;;;;;;;;;;;;;19.91;47.72;102410.66;7342533;19;19927;-58
2023/05/23 09:42:46;;;;;;;;;;;;;;;20.22;47.85;102412.25;7341217;19;19998;-58
2023/05/23 09:45:12;;;;;;;;;;;;;;;20.55;48.22;102417.28;7341427;19;19926;-57
2023/05/23 09:47:37;;;;;;;;;;;;;;;20.84;47.62;102413.53;7342327;19;19938;-58
2023/05/23 09:50:03;;;;;;;;;;;;;;;21.11;47.73;102411.59;7337089;19;19923;-58
2023/05/23 09:52:35;;;;;;;;;;;;;;;21.39;47.29;102408.69;7338399;19;19981;-59
2023/05/23 09:55:00;;;;;;;;;;;;;;;21.67;47.08;102411.97;7340823;19;19926;-58
2023/05/23 09:57:25;;;;;;;;;;;;;;;21.95;46.70;102410.81;7335696;19;19919;-58
2023/05/23 09:59:52;;;;;;;;;;;;;;;21.87;46.72;102355.25;7339269;19;21155;-58
2023/05/23 10:02:23;;;;;;;;;;;;;;;22.46;46.82;102407.66;7340491;19;19919;-58
2023/05/23 10:04:50;;;;;;;;;;;;;;;22.72;46.21;102402.91;7337737;19;19934;-59
2023/05/23 10:07:19;;;;;;;;;;;;;;;22.98;46.17;102399.91;7339324;19;19942;-55
2023/05/23 10:09:46;;;;;;;;;;;;;;;23.23;46.58;102410.25;7337122;19;20696;-58
2023/05/23 10:12:30;;;;;;;;;;;;;;;23.47;45.64;102401.97;7339605;19;20681;-58
2023/05/23 10:14:56;;;;;;;;;;;;;;;23.70;45.84;102407.06;7341835;19;20663;-58
2023/05/23 10:17:31;;;;;;;;;;;;;;;23.92;45.36;102404.13;7338906;19;25257;-58
2023/05/23 10:20:03;;;;;;;;;;;;;;;24.14;44.89;102408.38;7342632;19;20314;-58
2023/05/23 10:22:29;;;;;;;;;;;;;;;24.35;44.61;102404.56;7342430;19;19929;-58
2023/05/23 10:24:54;;;;;;;;;;;;;;;24.59;44.22;102394.41;7341900;19;19922;-58
2023/05/23 10:27:20;;;;;;;;;;;;;;;24.83;44.80;102392.16;7338293;19;20624;-59
2023/05/23 10:29:45;;;;;;;;;;;;;;;25.08;44.46;102413.91;7336708;19;19930;-58
2023/05/23 10:32:11;;;;;;;;;;;;;;;25.36;44.84;102404.31;7338666;19;20834;-58
2023/05/23 10:34:43;;;;;;;;;;;;;;;25.69;45.10;102406.81;7341303;19;19911;-58
2023/05/23 10:37:11;;;;;;;;;;;;;;;25.99;44.36;102405.94;7329466;19;20025;-58
2023/05/23 10:39:45;;;;;;;;;;;;;;;26.21;43.58;102397.50;7334932;19;20034;-58
2023/05/23 10:42:12;;;;;;;;;;;;;;;26.36;42.62;102383.16;7338536;19;19919;-58
2023/05/23 10:44:37;;;;;;;;;;;;;;;26.52;43.22;102381.25;7340923;19;19955;-57
2023/05/23 10:47:03;;;;;;;;;;;;;;;26.68;43.34;102374.91;7333458;19;19915;-58
2023/05/23 10:49:44;;;;;;;;;;;;;;;26.80;42.84;102380.31;7338791;19;19939;-58
2023/05/23 10:52:11;;;;;;;;;;;;;;;26.92;42.07;102386.72;7340620;19;21225;-58
2023/05/23 10:54:41;;;;;;;;;;;;;;;27.00;41.85;102383.53;7340822;19;19931;-54
2023/05/23 10:57:08;;;;;;;;;;;;;;;27.13;41.80;102377.31;7340716;19;19958;-57
2023/05/23 10:59:35;;;;;;;;;;;;;;;27.30;42.26;102391.41;7336282;19;20059;-59
2023/05/23 11:02:02;;;;;;;;;;;;;;;27.44;42.01;102391.34;7333142;19;19938;-57
2023/05/23 11:04:28;;;;;;;;;;;;;;;27.62;41.91;102394.59;7330547;19;19918;-57
2023/05/23 11:06:54;;;;;;;;;;;;;;;27.84;41.81;102375.25;7334604;19;19918;-57
2023/05/23 11:09:20;;;;;;;;;;;;;;;28.06;41.69;102378.13;7341042;19;20383;-57
2023/05/23 11:12:04;;;;;;;;;;;;;;;28.28;40.51;102371.25;7337492;19;19937;-58
2023/05/23 11:14:32;;;;;;;;;;;;;;;28.52;40.48;102366.81;7340414;19;19926;-57
2023/05/23 11:16:58;;;;;;;;;;;;;;;28.75;40.57;102367.00;7337657;19;19943;-57
2023/05/23 11:19:26;;;;;;;;;;;;;;;28.97;40.12;102366.28;7340197;19;19942;-57
2023/05/23 11:21:53;;;;;;;;;;;;;;;29.18;39.69;102362.84;7338481;19;19921;-57
2023/05/23 11:24:18;;;;;;;;;;;;;;;29.43;39.97;102358.31;7334772;19;19939;-57
2023/05/23 11:27:10;;;;;;;;;;;;;;;29.67;39.49;102367.22;7327789;19;21754;-57
2023/05/23 11:29:35;;;;;;;;;;;;;;;29.95;39.85;102363.22;7232320;19;2004516;-57
2023/05/23 11:32:08;;;;;;;;;;;;;;;30.18;40.11;102365.97;7339644;19;19931;-57
2023/05/23 11:34:34;;;;;;;;;;;;;;;30.37;39.14;102359.97;7336308;19;19950;-57
2023/05/23 11:36:59;;;;;;;;;;;;;;;30.56;38.17;102364.72;7342155;19;19925;-57
2023/05/23 11:39:24;;;;;;;;;;;;;;;30.77;38.44;102362.13;7341140;19;19942;-57
2023/05/23 11:41:59;;;;;;;;;;;;;;;31.01;38.44;102357.41;7340676;19;19922;-57
2023/05/23 11:44:25;;;;;;;;;;;;;;;31.25;38.07;102347.25;7341368;19;20006;-57
2023/05/23 11:47:03;;;;;;;;;;;;;;;31.44;38.19;102361.91;7341237;19;19918;-57
2023/05/23 11:49:29;;;;;;;;;;;;;;;31.56;38.02;102360.00;7340724;19;20055;-57
2023/05/23 11:51:54;;;;;;;;;;;;;;;31.67;37.82;102352.69;7339416;19;19922;-57
2023/05/23 11:54:24;;;;;;;;;;;;;;;31.84;36.22;102355.81;7339284;19;19926;-57
2023/05/23 11:56:50;;;;;;;;;;;;;;;32.02;37.76;102368.56;7339732;19;19986;-57
2023/05/23 11:59:15;;;;;;;;;;;;;;;32.22;37.23;102366.78;7342839;19;19933;-57
2023/05/23 12:01:42;;;;;;;;;;;;;;;32.40;37.65;102355.38;7337454;19;20638;-57
2023/05/23 12:04:11;;;;;;;;;;;;;;;32.56;36.56;102355.72;7341681;19;19930;-57
2023/05/23 12:06:37;;;;;;;;;;;;;;;32.65;35.06;102352.19;7339049;19;19926;-57
2023/05/23 12:09:03;;;;;;;;;;;;;;;32.75;35.85;102355.75;7341128;19;20402;-57
2023/05/23 12:11:30;;;;;;;;;;;;;;;32.87;35.87;102352.91;7338677;19;19954;-57
2023/05/23 12:13:56;;;;;;;;;;;;;;;32.98;35.41;102350.09;7340050;19;19955;-57
2023/05/23 12:16:21;;;;;;;;;;;;;;;33.11;35.48;102361.53;7339631;19;19954;-57
2023/05/23 12:18:46;;;;;;;;;;;;;;;33.23;34.18;102344.13;7338985;19;19923;-55
2023/05/23 12:21:11;;;;;;;;;;;;;;;33.40;34.28;102349.81;7338887;19;20339;-58
2023/05/23 12:23:38;;;;;;;;;;;;;;;33.61;34.38;102341.53;7339049;19;19954;-57
2023/05/23 12:26:05;;;;;;;;;;;;;;;33.83;34.52;102339.34;7339485;19;19927;-57
2023/05/23 12:28:37;;;;;;;;;;;;;;;34.12;35.74;102333.00;7340660;19;19929;-57
2023/05/23 12:31:09;;;;;;;;;;;;;;;34.26;34.04;102334.31;7337167;19;20439;-57